Time;durP1;ratioP1;P1;durP2;ratioP2;P2;SDS_P1;SDS_P2;PMS_P1;PMS_P2;Temp;Humidity;BMP_temperature;BMP_pressure;BME280_temperature;BME280_humidity;BME280_pressure;Samples;Min_cycle;Max_cycle;Signal;HPM_P1;HPM_P2
2022/06/02 00:01:17;;;;;;;;;;;12.00;99.90;;;;;;5083023;28;19909;-73
2022/06/02 00:03:45;;;;;;;;;;;11.90;99.90;;;;;;5076225;28;19959;-73
2022/06/02 00:06:40;;;;;;;;;;;11.90;99.90;;;;;;5076711;28;20409;-73
2022/06/02 00:09:25;;;;;;;;;;;11.80;99.90;;;;;;5036125;28;20327;-74
2022/06/02 00:12:09;;;;;;;;;;;11.70;99.90;;;;;;5038847;28;20377;-73
2022/06/02 00:14:45;;;;;;;;;;;11.70;99.90;;;;;;5034189;28;19913;-73
2022/06/02 00:17:15;;;;;;;;;;;11.60;99.90;;;;;;5046572;28;20296;-73
2022/06/02 00:20:12;;;;;;;;;;;11.60;99.90;;;;;;5044733;28;19987;-73
2022/06/02 00:22:46;;;;;;;;;;;11.50;99.90;;;;;;5007780;28;20417;-73
2022/06/02 00:25:27;;;;;;;;;;;11.40;99.90;;;;;;5002367;28;19979;-73
2022/06/02 00:28:01;;;;;;;;;;;11.40;99.90;;;;;;5004840;28;20443;-73
2022/06/02 00:30:37;;;;;;;;;;;11.30;99.90;;;;;;4998254;28;20273;-73
2022/06/02 00:33:32;;;;;;;;;;;11.30;99.90;;;;;;5002307;28;19972;-73
2022/06/02 00:36:21;;;;;;;;;;;11.20;99.90;;;;;;4981131;28;20281;-77
2022/06/02 00:39:21;;;;;;;;;;;11.20;99.90;;;;;;4974860;28;19910;-77
2022/06/02 00:47:53;;;;;;;;;;;11.00;99.90;;;;;;4994066;28;19940;-77
2022/06/02 00:53:27;;;;;;;;;;;10.90;99.90;;;;;;4994162;28;19973;-77
2022/06/02 01:01:59;;;;;;;;;;;10.70;99.90;;;;;;5033652;28;20396;-77
2022/06/02 01:07:56;;;;;;;;;;;10.60;99.90;;;;;;5033430;28;19963;-73
2022/06/02 01:10:22;;;;;;;;;;;10.50;99.90;;;;;;4961293;28;20265;-73
2022/06/02 01:13:11;;;;;;;;;;;10.50;99.90;;;;;;4986031;28;19910;-73
2022/06/02 01:15:37;;;;;;;;;;;10.40;99.90;;;;;;4995552;28;19916;-73
2022/06/02 01:18:16;;;;;;;;;;;10.30;99.90;;;;;;5004930;28;20285;-73
2022/06/02 01:20:51;;;;;;;;;;;10.30;99.90;;;;;;5007045;28;19914;-74
2022/06/02 01:23:39;;;;;;;;;;;10.20;99.90;;;;;;4985967;28;20377;-73
2022/06/02 01:26:20;;;;;;;;;;;10.10;99.90;;;;;;4993684;28;19945;-74
2022/06/02 01:28:59;;;;;;;;;;;10.10;99.90;;;;;;5002329;28;19968;-73
2022/06/02 01:31:43;;;;;;;;;;;10.00;99.90;;;;;;4993448;28;19909;-73
2022/06/02 01:34:27;;;;;;;;;;;9.90;99.90;;;;;;4990439;28;19910;-73
2022/06/02 01:37:08;;;;;;;;;;;9.90;99.90;;;;;;4996952;28;19910;-73
2022/06/02 01:40:03;;;;;;;;;;;9.80;99.90;;;;;;4993315;28;19921;-73
2022/06/02 01:42:32;;;;;;;;;;;9.80;99.90;;;;;;4963555;28;19969;-73
2022/06/02 01:45:15;;;;;;;;;;;9.70;99.90;;;;;;4965521;28;20029;-74
2022/06/02 01:47:42;;;;;;;;;;;9.60;99.90;;;;;;5011186;28;19909;-73
2022/06/02 01:50:16;;;;;;;;;;;9.60;99.90;;;;;;5025738;28;19949;-73
2022/06/02 01:53:02;;;;;;;;;;;9.60;99.90;;;;;;5012221;28;19925;-73
2022/06/02 01:55:35;;;;;;;;;;;9.50;99.90;;;;;;5003075;28;19909;-73
2022/06/02 01:58:01;;;;;;;;;;;9.40;99.90;;;;;;5012358;28;20365;-73
2022/06/02 02:00:30;;;;;;;;;;;9.30;99.90;;;;;;5022586;28;19916;-73
2022/06/02 02:03:04;;;;;;;;;;;9.30;99.90;;;;;;5013595;28;19913;-73
2022/06/02 02:05:32;;;;;;;;;;;9.20;99.90;;;;;;5012553;28;19913;-74
2022/06/02 02:08:10;;;;;;;;;;;9.10;99.90;;;;;;5018870;28;20007;-74
2022/06/02 02:10:54;;;;;;;;;;;9.10;99.90;;;;;;5012091;28;19914;-73
2022/06/02 02:13:27;;;;;;;;;;;9.10;99.90;;;;;;5012408;28;19917;-74
2022/06/02 02:16:16;;;;;;;;;;;9.00;99.90;;;;;;5016818;28;20105;-74
2022/06/02 02:18:47;;;;;;;;;;;8.90;99.90;;;;;;5044788;28;19913;-73
2022/06/02 02:21:19;;;;;;;;;;;8.90;99.90;;;;;;5071381;28;19975;-74
2022/06/02 02:23:53;;;;;;;;;;;8.80;99.90;;;;;;5079598;28;19916;-73
2022/06/02 02:26:22;;;;;;;;;;;8.80;99.90;;;;;;5084637;28;19908;-73
2022/06/02 02:28:58;;;;;;;;;;;8.80;99.90;;;;;;5076540;28;19908;-73
2022/06/02 02:31:32;;;;;;;;;;;8.70;99.90;;;;;;5074096;28;20300;-73
2022/06/02 02:34:30;;;;;;;;;;;8.60;99.90;;;;;;5075567;28;19912;-73
2022/06/02 02:36:58;;;;;;;;;;;8.60;99.90;;;;;;5032120;28;19971;-73
2022/06/02 02:39:26;;;;;;;;;;;8.50;99.90;;;;;;5043156;28;19913;-73
2022/06/02 02:42:04;;;;;;;;;;;8.50;99.90;;;;;;5038355;28;19913;-73
2022/06/02 02:44:38;;;;;;;;;;;8.50;99.90;;;;;;5038973;28;20331;-73
2022/06/02 02:47:15;;;;;;;;;;;8.30;99.90;;;;;;5023289;28;19913;-73
2022/06/02 02:49:47;;;;;;;;;;;8.20;1.00;;;;;;5033838;28;19976;-74
2022/06/02 02:58:51;;;;;;;;;;;8.20;1.00;;;;;;5024882;28;19962;-77
2022/06/02 03:04:20;;;;;;;;;;;8.10;1.00;;;;;;5044789;28;19932;-77
2022/06/02 03:07:09;;;;;;;;;;;8.10;1.00;;;;;;5041553;28;19909;-77
2022/06/02 03:10:12;;;;;;;;;;;8.10;1.00;;;;;;5045162;28;20496;-77
2022/06/02 03:15:45;;;;;;;;;;;8.00;1.00;;;;;;5022331;28;19959;-77
2022/06/02 03:18:33;;;;;;;;;;;7.90;1.00;;;;;;5025606;28;19916;-77
2022/06/02 03:21:21;;;;;;;;;;;7.90;1.00;;;;;;5015755;28;19909;-77
2022/06/02 03:24:09;;;;;;;;;;;7.90;1.00;;;;;;5018288;28;19913;-73
2022/06/02 03:26:45;;;;;;;;;;;7.90;1.00;;;;;;5022901;28;20316;-74
2022/06/02 03:29:17;;;;;;;;;;;7.80;1.00;;;;;;5013627;28;20000;-73
2022/06/02 03:31:51;;;;;;;;;;;7.80;1.00;;;;;;5015045;28;20360;-73
2022/06/02 03:34:19;;;;;;;;;;;7.80;1.00;;;;;;5024146;28;19910;-73
2022/06/02 03:36:54;;;;;;;;;;;7.80;1.00;;;;;;5021195;28;19979;-73
2022/06/02 03:39:28;;;;;;;;;;;7.80;1.00;;;;;;5015297;28;20308;-73
2022/06/02 03:42:15;;;;;;;;;;;7.80;1.00;;;;;;5028296;28;19933;-73
2022/06/02 03:44:50;;;;;;;;;;;7.70;1.00;;;;;;5032606;28;20273;-73
2022/06/02 03:47:20;;;;;;;;;;;7.80;1.00;;;;;;5062715;28;19913;-73
2022/06/02 03:50:05;;;;;;;;;;;7.80;1.00;;;;;;5090451;28;19951;-73
2022/06/02 03:52:45;;;;;;;;;;;7.70;1.00;;;;;;5077321;28;19917;-76
2022/06/02 03:55:45;;;;;;;;;;;7.70;1.00;;;;;;5072233;28;19930;-77
2022/06/02 03:58:45;;;;;;;;;;;7.80;1.00;;;;;;5072971;28;20282;-76
2022/06/02 04:04:19;;;;;;;;;;;7.80;1.00;;;;;;5089977;28;19930;-76
2022/06/02 04:06:50;;;;;;;;;;;7.80;1.00;;;;;;5085489;28;19912;-76
2022/06/02 04:09:51;;;;;;;;;;;7.80;1.00;;;;;;5083473;28;19954;-76
2022/06/02 04:15:33;;;;;;;;;;;7.80;1.00;;;;;;5083367;28;20275;-76
2022/06/02 04:18:24;;;;;;;;;;;7.80;1.00;;;;;;5057712;28;20066;-76
2022/06/02 04:24:04;;;;;;;;;;;7.90;1.00;;;;;;5075809;28;19954;-73
2022/06/02 04:26:32;;;;;;;;;;;8.00;1.00;;;;;;5076103;28;19913;-73
2022/06/02 04:29:12;;;;;;;;;;;8.10;1.00;;;;;;5089444;28;19909;-73
2022/06/02 04:31:41;;;;;;;;;;;8.10;1.00;;;;;;5076033;28;19908;-72
2022/06/02 04:37:35;;;;;;;;;;;8.20;1.00;;;;;;5089419;28;19931;-76
2022/06/02 04:40:20;;;;;;;;;;;8.30;1.00;;;;;;5047180;28;19998;-76
2022/06/02 04:43:16;;;;;;;;;;;8.30;1.00;;;;;;5033977;28;19975;-76
2022/06/02 04:46:10;;;;;;;;;;;8.40;1.00;;;;;;5042044;28;20387;-75
2022/06/02 04:48:36;;;;;;;;;;;8.40;1.00;;;;;;5048205;28;19913;-76
2022/06/02 04:51:28;;;;;;;;;;;8.50;1.00;;;;;;5045709;28;20019;-75
2022/06/02 05:00:20;;;;;;;;;;;8.80;1.00;;;;;;5027871;28;19924;-77
2022/06/02 05:03:15;;;;;;;;;;;8.90;1.00;;;;;;5039658;28;19909;-77
2022/06/02 05:08:50;;;;;;;;;;;9.10;1.00;;;;;;5041812;28;19940;-76
2022/06/02 05:29:44;;;;;;;;;;;10.20;1.00;;;;;;5074270;28;20443;-77
2022/06/02 05:47:27;;;;;;;;;;;11.20;1.00;;;;;;5056343;28;19974;-75
2022/06/02 05:50:03;;;;;;;;;;;11.40;1.00;;;;;;5077751;28;19912;-76
2022/06/02 05:52:47;;;;;;;;;;;11.60;1.00;;;;;;5083569;28;20253;-77
2022/06/02 06:04:22;;;;;;;;;;;12.50;99.90;;;;;;5073046;28;19935;-78
2022/06/02 06:07:00;;;;;;;;;;;12.70;99.90;;;;;;5091319;28;19913;-78
2022/06/02 06:12:41;;;;;;;;;;;13.00;99.90;;;;;;5077120;28;19919;-79
2022/06/02 06:15:17;;;;;;;;;;;13.20;99.90;;;;;;5085560;28;19909;-79
2022/06/02 06:21:05;;;;;;;;;;;13.50;99.90;;;;;;5080810;28;20324;-78
2022/06/02 06:23:52;;;;;;;;;;;13.60;99.90;;;;;;5080876;28;19915;-76
2022/06/02 06:26:26;;;;;;;;;;;13.80;99.90;;;;;;5084405;28;19919;-76
2022/06/02 06:32:11;;;;;;;;;;;14.10;99.90;;;;;;5080319;28;19918;-76
2022/06/02 06:35:10;;;;;;;;;;;14.30;99.90;;;;;;5082543;28;19908;-75
2022/06/02 06:37:35;;;;;;;;;;;14.40;99.90;;;;;;5073375;28;19908;-75
2022/06/02 06:40:07;;;;;;;;;;;14.60;99.90;;;;;;5079931;28;19912;-75
2022/06/02 06:42:40;;;;;;;;;;;14.70;99.90;;;;;;5084489;28;20193;-75
2022/06/02 06:45:10;;;;;;;;;;;14.90;99.90;;;;;;5080425;28;19918;-75
2022/06/02 06:47:43;;;;;;;;;;;15.00;99.90;;;;;;5084918;28;19930;-75
2022/06/02 06:53:28;;;;;;;;;;;15.20;99.90;;;;;;5095673;28;20030;-75
2022/06/02 06:55:58;;;;;;;;;;;15.40;99.90;;;;;;5084207;28;19908;-75
2022/06/02 06:58:53;;;;;;;;;;;15.50;99.90;;;;;;5091067;28;19909;-76
2022/06/02 07:01:22;;;;;;;;;;;15.70;99.90;;;;;;5091405;28;19951;-75
2022/06/02 07:06:53;;;;;;;;;;;15.90;99.90;;;;;;5057554;28;19928;-80
2022/06/02 07:18:58;;;;;;;;;;;16.50;99.90;;;;;;5068493;28;19953;-78
2022/06/02 07:24:44;;;;;;;;;;;16.80;99.90;;;;;;5048770;28;19939;-78
2022/06/02 07:27:28;;;;;;;;;;;16.90;99.90;;;;;;5037803;28;20250;-76
2022/06/02 07:33:10;;;;;;;;;;;17.10;99.90;;;;;;5040751;28;19909;-78
2022/06/02 07:38:38;;;;;;;;;;;17.20;99.90;;;;;;5041737;28;19939;-78
2022/06/02 07:47:09;;;;;;;;;;;17.50;99.90;;;;;;5054323;28;19952;-80
2022/06/02 07:52:37;;;;;;;;;;;17.60;99.90;;;;;;5037989;28;19956;-79
2022/06/02 07:55:10;;;;;;;;;;;17.80;99.90;;;;;;5048089;28;19910;-78
2022/06/02 07:58:10;;;;;;;;;;;18.00;99.90;;;;;;5065378;28;19909;-77
2022/06/02 08:03:58;;;;;;;;;;;18.30;99.90;;;;;;5078390;28;20390;-78
2022/06/02 08:06:28;;;;;;;;;;;18.60;99.90;;;;;;5069881;28;19966;-76
2022/06/02 08:09:12;;;;;;;;;;;18.70;99.90;;;;;;5083319;28;19917;-77
2022/06/02 08:11:42;;;;;;;;;;;18.70;99.90;;;;;;5087188;28;19909;-77
2022/06/02 08:14:27;;;;;;;;;;;18.70;99.90;;;;;;5081993;28;19920;-77
2022/06/02 08:17:29;;;;;;;;;;;18.80;99.90;;;;;;5089686;28;20003;-79
2022/06/02 08:19:58;;;;;;;;;;;18.90;99.90;;;;;;5092002;28;19931;-77
2022/06/02 08:25:28;;;;;;;;;;;19.20;99.90;;;;;;5071399;28;20006;-76
2022/06/02 08:31:02;;;;;;;;;;;19.40;99.90;;;;;;5083074;28;20035;-79
2022/06/02 08:33:30;;;;;;;;;;;19.50;99.90;;;;;;5078412;28;20382;-76
2022/06/02 08:36:10;;;;;;;;;;;19.60;99.90;;;;;;5082285;28;20286;-76
2022/06/02 08:38:55;;;;;;;;;;;19.60;99.90;;;;;;5087051;28;19909;-77
2022/06/02 08:41:46;;;;;;;;;;;19.60;99.90;;;;;;5089755;28;19919;-78
2022/06/02 08:44:23;;;;;;;;;;;19.50;99.90;;;;;;5091285;28;19908;-78
2022/06/02 08:49:52;;;;;;;;;;;19.50;99.90;;;;;;5072753;28;20337;-77
2022/06/02 08:58:30;;;;;;;;;;;19.60;99.90;;;;;;5087748;28;20382;-76
2022/06/02 09:04:16;;;;;;;;;;;19.80;99.90;;;;;;5080071;28;19919;-78
2022/06/02 09:07:04;;;;;;;;;;;20.00;99.90;;;;;;5082035;28;19908;-77
2022/06/02 09:09:32;;;;;;;;;;;20.20;99.90;;;;;;5085454;28;19981;-77
2022/06/02 09:12:17;;;;;;;;;;;20.10;99.90;;;;;;5075708;28;19912;-76
2022/06/02 09:17:53;;;;;;;;;;;20.20;99.90;;;;;;5076489;28;20042;-78
2022/06/02 09:23:40;;;;;;;;;;;20.40;99.90;;;;;;5084755;28;19919;-78
2022/06/02 09:29:28;;;;;;;;;;;20.60;99.90;;;;;;5077000;28;19915;-77
2022/06/02 09:34:59;;;;;;;;;;;20.80;99.90;;;;;;5081460;28;20046;-77
2022/06/02 09:40:37;;;;;;;;;;;21.00;99.90;;;;;;5081661;28;20412;-82
2022/06/02 09:46:24;;;;;;;;;;;21.30;99.90;;;;;;5074614;28;19965;-82
2022/06/02 09:49:14;;;;;;;;;;;21.30;99.90;;;;;;5074560;28;19908;-82
2022/06/02 09:54:45;;;;;;;;;;;21.50;99.90;;;;;;5077171;28;19927;-83
2022/06/02 10:00:16;;;;;;;;;;;21.90;99.90;;;;;;5058075;28;19991;-81
2022/06/02 10:06:03;;;;;;;;;;;22.10;99.90;;;;;;5074586;28;19975;-82
2022/06/02 10:11:36;;;;;;;;;;;22.70;99.90;;;;;;5073153;28;20406;-82
2022/06/02 10:23:20;;;;;;;;;;;22.90;99.90;;;;;;5053546;28;19955;-83
2022/06/02 10:28:53;;;;;;;;;;;22.70;99.90;;;;;;5076933;28;19951;-77
2022/06/02 10:34:51;;;;;;;;;;;23.00;99.90;;;;;;5053822;28;19916;-80
2022/06/02 10:37:40;;;;;;;;;;;23.10;99.90;;;;;;5087202;28;19909;-77
2022/06/02 10:40:28;;;;;;;;;;;23.30;99.90;;;;;;5087349;28;19915;-78
2022/06/02 10:46:09;;;;;;;;;;;23.30;99.90;;;;;;5079159;28;19947;-77
2022/06/02 10:48:58;;;;;;;;;;;23.20;99.90;;;;;;5087100;28;19951;-78
2022/06/02 10:57:41;;;;;;;;;;;23.10;99.90;;;;;;5086269;28;19972;-82
2022/06/02 11:00:40;;;;;;;;;;;23.10;99.90;;;;;;5064252;28;19908;-82
2022/06/02 11:03:16;;;;;;;;;;;23.10;99.90;;;;;;5094499;28;19908;-85
2022/06/02 11:06:00;;;;;;;;;;;23.40;99.90;;;;;;5080493;28;20264;-75
2022/06/02 11:08:52;;;;;;;;;;;23.40;99.90;;;;;;5082787;28;19916;-76
2022/06/02 11:11:36;;;;;;;;;;;23.20;99.90;;;;;;5086506;28;20309;-74
2022/06/02 11:14:22;;;;;;;;;;;23.30;99.90;;;;;;5087236;28;19909;-77
2022/06/02 11:16:51;;;;;;;;;;;23.30;99.90;;;;;;5042816;28;19956;-73
2022/06/02 11:19:28;;;;;;;;;;;23.60;99.90;;;;;;5032889;28;19976;-76
2022/06/02 11:22:12;;;;;;;;;;;23.80;99.90;;;;;;5030952;28;19909;-73
2022/06/02 11:24:58;;;;;;;;;;;23.90;99.90;;;;;;5031360;28;19916;-78
2022/06/02 11:30:38;;;;;;;;;;;24.20;99.90;;;;;;5044758;28;20288;-81
2022/06/02 11:33:34;;;;;;;;;;;24.30;99.90;;;;;;5045152;28;20283;-81
2022/06/02 11:42:20;;;;;;;;;;;25.30;99.90;;;;;;5041627;28;19963;-81
2022/06/02 11:48:07;;;;;;;;;;;25.30;99.90;;;;;;5041614;28;19976;-81
2022/06/02 11:53:45;;;;;;;;;;;24.90;99.90;;;;;;5045383;28;20373;-82
2022/06/02 11:59:33;;;;;;;;;;;25.00;99.90;;;;;;5091007;28;20431;-81
2022/06/02 12:08:23;;;;;;;;;;;25.10;99.90;;;;;;5056463;28;19923;-81
2022/06/02 12:10:56;;;;;;;;;;;25.00;99.90;;;;;;5101621;28;20383;-75
2022/06/02 12:13:41;;;;;;;;;;;24.90;99.90;;;;;;5076213;28;19916;-74
2022/06/02 12:22:40;;;;;;;;;;;24.70;99.90;;;;;;5093518;28;20445;-78
2022/06/02 12:25:16;;;;;;;;;;;24.50;99.90;;;;;;5089588;28;20347;-79
2022/06/02 12:30:55;;;;;;;;;;;24.50;99.90;;;;;;5082397;28;20340;-79
2022/06/02 12:36:49;;;;;;;;;;;24.50;99.90;;;;;;5081706;28;19962;-78
2022/06/02 12:42:23;;;;;;;;;;;24.70;99.90;;;;;;5071908;28;19931;-78
2022/06/02 12:44:55;;;;;;;;;;;24.70;99.90;;;;;;5081750;28;19912;-79
2022/06/02 12:47:58;;;;;;;;;;;24.60;99.90;;;;;;5096420;28;19908;-79
2022/06/02 12:53:45;;;;;;;;;;;24.70;99.90;;;;;;5089194;28;19958;-78
2022/06/02 13:02:20;;;;;;;;;;;24.90;99.90;;;;;;5067917;28;19957;-74
2022/06/02 13:05:04;;;;;;;;;;;25.00;99.90;;;;;;5080745;28;20015;-77
2022/06/02 13:07:55;;;;;;;;;;;25.10;99.90;;;;;;5082002;28;19916;-76
2022/06/02 13:10:30;;;;;;;;;;;25.20;99.90;;;;;;5078546;28;19947;-76
2022/06/02 13:13:10;;;;;;;;;;;25.40;99.90;;;;;;5080631;28;19908;-76
2022/06/02 13:16:05;;;;;;;;;;;25.40;99.90;;;;;;5089303;28;19973;-79
2022/06/02 13:18:58;;;;;;;;;;;25.40;99.90;;;;;;5088012;28;19931;-78
2022/06/02 13:21:40;;;;;;;;;;;25.40;99.90;;;;;;5074240;28;19908;-78
2022/06/02 13:24:28;;;;;;;;;;;25.40;99.90;;;;;;5081981;28;19908;-78
2022/06/02 13:29:59;;;;;;;;;;;25.70;99.90;;;;;;5086866;28;19953;-78
2022/06/02 13:32:44;;;;;;;;;;;25.90;99.90;;;;;;5069343;28;20367;-78
2022/06/02 13:41:40;;;;;;;;;;;26.00;99.90;;;;;;5089465;28;20362;-78
2022/06/02 13:44:40;;;;;;;;;;;26.20;99.90;;;;;;5074253;28;19908;-78
2022/06/02 13:47:28;;;;;;;;;;;26.50;99.90;;;;;;5075449;28;19916;-77
2022/06/02 13:50:10;;;;;;;;;;;26.70;99.90;;;;;;5081364;28;19912;-77
2022/06/02 13:53:04;;;;;;;;;;;26.70;99.90;;;;;;5075521;28;20054;-77
2022/06/02 13:58:32;;;;;;;;;;;26.80;99.90;;;;;;5070390;28;20007;-78
2022/06/02 14:01:10;;;;;;;;;;;26.80;99.90;;;;;;5081128;28;19913;-76
2022/06/02 14:03:58;;;;;;;;;;;26.70;99.90;;;;;;5095172;28;19940;-79
2022/06/02 14:07:00;;;;;;;;;;;26.90;99.90;;;;;;5074405;28;19920;-77
2022/06/02 14:09:34;;;;;;;;;;;27.00;99.90;;;;;;5032249;28;20281;-77
2022/06/02 14:12:04;;;;;;;;;;;27.10;99.90;;;;;;5032553;28;19909;-75
2022/06/02 14:17:58;;;;;;;;;;;27.30;99.90;;;;;;5038860;28;20430;-79
2022/06/02 14:27:04;;;;;;;;;;;27.50;99.90;;;;;;5046948;28;19920;-78
2022/06/02 14:29:52;;;;;;;;;;;27.50;99.90;;;;;;5032494;28;19915;-79
2022/06/02 14:32:38;;;;;;;;;;;27.30;99.90;;;;;;5043605;28;20015;-77
2022/06/02 14:35:28;;;;;;;;;;;27.10;99.90;;;;;;5029077;28;19909;-77
2022/06/02 14:38:04;;;;;;;;;;;27.10;99.90;;;;;;5038669;28;19931;-77
2022/06/02 14:40:53;;;;;;;;;;;26.90;99.90;;;;;;5038968;28;19909;-77
2022/06/02 14:43:37;;;;;;;;;;;27.00;99.90;;;;;;5051551;28;19909;-77
2022/06/02 14:46:25;;;;;;;;;;;26.80;99.90;;;;;;5090547;28;20029;-77
2022/06/02 14:49:13;;;;;;;;;;;26.60;99.90;;;;;;5094730;28;19916;-77
2022/06/02 14:51:40;;;;;;;;;;;26.40;99.90;;;;;;5094454;28;19918;-77
2022/06/02 14:54:06;;;;;;;;;;;26.30;99.90;;;;;;5080476;28;19916;-76
2022/06/02 14:56:40;;;;;;;;;;;26.20;99.90;;;;;;5094043;28;20282;-77
2022/06/02 14:59:15;;;;;;;;;;;26.40;99.90;;;;;;5074275;28;19991;-77
2022/06/02 15:02:12;;;;;;;;;;;26.60;99.90;;;;;;5087354;28;19908;-77
2022/06/02 15:04:58;;;;;;;;;;;26.80;99.90;;;;;;5035584;28;20334;-79
2022/06/02 15:10:29;;;;;;;;;;;28.20;99.90;;;;;;5035681;28;20399;-78
2022/06/02 15:16:06;;;;;;;;;;;31.40;99.90;;;;;;5046787;28;19958;-79
2022/06/02 15:18:41;;;;;;;;;;;33.70;99.90;;;;;;5035979;28;19913;-80
2022/06/02 15:24:22;;;;;;;;;;;36.50;99.90;;;;;;5042680;28;20007;-84
2022/06/02 15:30:08;;;;;;;;;;;38.50;99.90;;;;;;5047562;28;20394;-85
2022/06/02 15:32:46;;;;;;;;;;;39.80;99.90;;;;;;5052322;28;19921;-77
2022/06/02 15:35:27;;;;;;;;;;;40.80;99.90;;;;;;5034800;28;19927;-75
2022/06/02 15:38:21;;;;;;;;;;;41.10;99.90;;;;;;5045055;28;19971;-76
2022/06/02 15:40:57;;;;;;;;;;;41.70;99.90;;;;;;5027426;28;20352;-76
2022/06/02 15:43:47;;;;;;;;;;;42.10;99.90;;;;;;5022902;28;19913;-76
2022/06/02 15:46:16;;;;;;;;;;;43.10;99.90;;;;;;5019972;28;19921;-76
2022/06/02 15:48:49;;;;;;;;;;;43.80;99.90;;;;;;5025079;28;19992;-78
2022/06/02 15:54:38;;;;;;;;;;;44.60;99.90;;;;;;5021943;28;19940;-80
2022/06/02 15:57:22;;;;;;;;;;;44.50;99.90;;;;;;5020876;28;20377;-81
2022/06/02 16:00:22;;;;;;;;;;;45.20;99.90;;;;;;5024613;28;19947;-81
2022/06/02 16:06:08;;;;;;;;;;;45.80;99.90;;;;;;5027819;28;19972;-82
2022/06/02 16:14:55;;;;;;;;;;;46.60;99.90;;;;;;5026344;28;20440;-82
2022/06/02 16:26:53;;;;;;;;;;;46.90;99.90;;;;;;5087536;28;20421;-79
2022/06/02 16:29:34;;;;;;;;;;;47.60;99.90;;;;;;5071518;28;20274;-78
2022/06/02 16:32:22;;;;;;;;;;;48.10;99.90;;;;;;5082701;28;19908;-79
2022/06/02 16:38:15;;;;;;;;;;;48.60;99.90;;;;;;5087139;28;19957;-79
2022/06/02 16:43:58;;;;;;;;;;;48.10;99.90;;;;;;5089671;28;19979;-80
2022/06/02 16:46:41;;;;;;;;;;;47.60;99.90;;;;;;5089267;28;20013;-80
2022/06/02 16:49:30;;;;;;;;;;;47.30;99.90;;;;;;5086596;28;19912;-79
2022/06/02 16:55:28;;;;;;;;;;;46.70;99.90;;;;;;5039799;28;19916;-78
2022/06/02 16:58:12;;;;;;;;;;;46.60;99.90;;;;;;5037478;28;20399;-78
2022/06/02 17:00:58;;;;;;;;;;;46.70;99.90;;;;;;5044211;28;19909;-78
2022/06/02 17:03:33;;;;;;;;;;;46.90;99.90;;;;;;5033457;28;19913;-76
2022/06/02 17:06:04;;;;;;;;;;;47.10;99.90;;;;;;5046867;28;20388;-77
2022/06/02 17:08:45;;;;;;;;;;;47.10;99.90;;;;;;5042644;28;19931;-77
2022/06/02 17:11:18;;;;;;;;;;;47.30;99.90;;;;;;5033233;28;19940;-78
2022/06/02 17:14:02;;;;;;;;;;;47.70;99.90;;;;;;5032584;28;19920;-77
2022/06/02 17:19:43;;;;;;;;;;;47.00;99.90;;;;;;5038983;28;19916;-77
2022/06/02 17:22:23;;;;;;;;;;;47.30;99.90;;;;;;5042189;28;19913;-77
2022/06/02 17:25:01;;;;;;;;;;;47.50;99.90;;;;;;5033530;28;19917;-78
2022/06/02 17:27:36;;;;;;;;;;;47.70;99.90;;;;;;5046427;28;19913;-77
2022/06/02 17:30:19;;;;;;;;;;;47.80;99.90;;;;;;5069464;28;19908;-77
2022/06/02 17:32:58;;;;;;;;;;;47.80;99.90;;;;;;5085631;28;19962;-77
2022/06/02 17:35:39;;;;;;;;;;;47.80;99.90;;;;;;5075316;28;19913;-73
2022/06/02 17:38:26;;;;;;;;;;;46.80;99.90;;;;;;5087386;28;19912;-74
2022/06/02 17:40:58;;;;;;;;;;;45.60;99.90;;;;;;5075068;28;19908;-73
2022/06/02 17:43:29;;;;;;;;;;;43.50;99.90;;;;;;5090736;28;19930;-73
2022/06/02 17:45:58;;;;;;;;;;;41.50;99.90;;;;;;5090538;28;19912;-71
2022/06/02 17:49:02;;;;;;;;;;;39.40;99.90;;;;;;5087549;28;19917;-71
2022/06/02 17:51:46;;;;;;;;;;;37.50;99.90;;;;;;5041212;28;19944;-72
2022/06/02 17:54:20;;;;;;;;;;;35.40;99.90;;;;;;5038908;28;19921;-71
2022/06/02 17:56:48;;;;;;;;;;;33.70;99.90;;;;;;5029227;28;19920;-71
2022/06/02 17:59:26;;;;;;;;;;;32.20;99.90;;;;;;5051898;28;19973;-71
2022/06/02 18:02:18;;;;;;;;;;;30.90;99.90;;;;;;5048335;28;19920;-71
2022/06/02 18:04:56;;;;;;;;;;;29.70;99.90;;;;;;5007561;28;20042;-74
2022/06/02 18:07:34;;;;;;;;;;;28.50;99.90;;;;;;5002412;28;19919;-73
2022/06/02 18:10:28;;;;;;;;;;;27.40;99.90;;;;;;4986143;28;20390;-77
2022/06/02 18:13:28;;;;;;;;;;;26.60;99.90;;;;;;4977476;28;20405;-76
2022/06/02 18:16:14;;;;;;;;;;;25.80;99.90;;;;;;4994707;28;19929;-73
2022/06/02 18:19:07;;;;;;;;;;;25.10;99.90;;;;;;4980414;28;19920;-74
2022/06/02 18:21:42;;;;;;;;;;;24.50;99.90;;;;;;4988109;28;19918;-76
2022/06/02 18:24:10;;;;;;;;;;;24.00;99.90;;;;;;5011914;28;19913;-77
2022/06/02 18:26:58;;;;;;;;;;;23.40;99.90;;;;;;5012238;28;19936;-76
2022/06/02 18:29:28;;;;;;;;;;;23.00;99.90;;;;;;5001837;28;19917;-78
2022/06/02 18:32:05;;;;;;;;;;;22.50;99.90;;;;;;5012632;28;19918;-77
2022/06/02 18:34:45;;;;;;;;;;;22.20;99.90;;;;;;5032000;28;20055;-77
2022/06/02 18:37:13;;;;;;;;;;;22.00;99.90;;;;;;5018847;28;19909;-78
2022/06/02 18:39:59;;;;;;;;;;;21.60;99.90;;;;;;5026566;28;20133;-77
2022/06/02 18:42:31;;;;;;;;;;;21.30;99.90;;;;;;5062523;28;19912;-77
2022/06/02 18:45:16;;;;;;;;;;;21.10;99.90;;;;;;5080563;28;19939;-78
2022/06/02 18:47:50;;;;;;;;;;;20.90;99.90;;;;;;5087169;28;19908;-78
2022/06/02 18:50:34;;;;;;;;;;;20.70;99.90;;;;;;5079677;28;19916;-74
2022/06/02 18:53:02;;;;;;;;;;;20.50;99.90;;;;;;5081012;28;19995;-74
2022/06/02 18:55:47;;;;;;;;;;;20.30;99.90;;;;;;5080945;28;19915;-76
2022/06/02 18:58:31;;;;;;;;;;;20.20;99.90;;;;;;5091009;28;20359;-74
2022/06/02 19:01:00;;;;;;;;;;;20.00;99.90;;;;;;5085809;28;19954;-74
2022/06/02 19:03:27;;;;;;;;;;;19.90;99.90;;;;;;5074434;28;19917;-74
2022/06/02 19:14:53;;;;;;;;;;;19.40;99.90;;;;;;5082386;28;19919;-78
2022/06/02 19:17:38;;;;;;;;;;;19.30;99.90;;;;;;5093713;28;20386;-79
2022/06/02 19:20:08;;;;;;;;;;;19.20;99.90;;;;;;5093654;28;19919;-79
2022/06/02 19:22:42;;;;;;;;;;;19.20;99.90;;;;;;5068403;28;19946;-74
2022/06/02 19:25:28;;;;;;;;;;;19.10;99.90;;;;;;5078431;28;20019;-74
2022/06/02 19:28:14;;;;;;;;;;;19.00;99.90;;;;;;5084846;28;19953;-75
2022/06/02 19:30:47;;;;;;;;;;;18.90;99.90;;;;;;5069056;28;19948;-75
2022/06/02 19:33:16;;;;;;;;;;;18.80;99.90;;;;;;5054911;28;19916;-75
2022/06/02 19:35:59;;;;;;;;;;;18.70;99.90;;;;;;5073312;28;19908;-75
2022/06/02 19:38:46;;;;;;;;;;;18.60;99.90;;;;;;5071729;28;19975;-74
2022/06/02 19:41:31;;;;;;;;;;;18.50;99.90;;;;;;5087288;28;20255;-75
2022/06/02 19:44:07;;;;;;;;;;;18.40;99.90;;;;;;5084356;28;20000;-74
2022/06/02 19:46:51;;;;;;;;;;;18.30;99.90;;;;;;5086873;28;19969;-74
2022/06/02 19:49:22;;;;;;;;;;;18.30;99.90;;;;;;5086506;28;19948;-74
2022/06/02 19:57:55;;;;;;;;;;;18.00;99.90;;;;;;5090275;28;19958;-79
2022/06/02 20:00:27;;;;;;;;;;;17.90;99.90;;;;;;5076558;28;19909;-79
2022/06/02 20:02:58;;;;;;;;;;;17.80;99.90;;;;;;5090312;28;19909;-79
2022/06/02 20:05:47;;;;;;;;;;;17.70;99.90;;;;;;5089157;28;19916;-79
2022/06/02 20:11:40;;;;;;;;;;;17.50;99.90;;;;;;5063704;28;20274;-79
2022/06/02 20:17:23;;;;;;;;;;;17.40;99.90;;;;;;5084929;28;19931;-79
2022/06/02 20:20:10;;;;;;;;;;;17.40;99.90;;;;;;5084693;28;19908;-79
2022/06/02 20:23:04;;;;;;;;;;;17.30;99.90;;;;;;5084090;28;19908;-79
2022/06/02 20:26:04;;;;;;;;;;;17.30;99.90;;;;;;5098190;28;20339;-79
2022/06/02 20:31:34;;;;;;;;;;;17.20;99.90;;;;;;5082774;28;19997;-79
2022/06/02 20:34:29;;;;;;;;;;;17.20;99.90;;;;;;5094316;28;19908;-79
2022/06/02 20:37:19;;;;;;;;;;;17.10;99.90;;;;;;5098125;28;19908;-80
2022/06/02 20:49:05;;;;;;;;;;;16.90;99.90;;;;;;5013864;28;19952;-79
2022/06/02 20:51:58;;;;;;;;;;;16.80;99.90;;;;;;5033063;28;20393;-79
2022/06/02 20:57:42;;;;;;;;;;;16.80;99.90;;;;;;5033871;28;19917;-79
2022/06/02 21:03:28;;;;;;;;;;;16.70;99.90;;;;;;5027490;28;20363;-79
2022/06/02 21:06:16;;;;;;;;;;;16.60;99.90;;;;;;5036804;28;19917;-79
2022/06/02 21:08:52;;;;;;;;;;;16.50;99.90;;;;;;5046353;28;19915;-74
2022/06/02 21:11:20;;;;;;;;;;;16.50;99.90;;;;;;5039447;28;19912;-74
2022/06/02 21:13:49;;;;;;;;;;;16.40;99.90;;;;;;5033412;28;20252;-74
2022/06/02 21:16:14;;;;;;;;;;;16.30;99.90;;;;;;5053954;28;20244;-74
2022/06/02 21:19:17;;;;;;;;;;;16.30;99.90;;;;;;5082097;28;19934;-74
2022/06/02 21:22:00;;;;;;;;;;;16.20;99.90;;;;;;5039251;28;19917;-74
2022/06/02 21:24:26;;;;;;;;;;;16.20;99.90;;;;;;5033299;28;19913;-74
2022/06/02 21:27:17;;;;;;;;;;;16.10;99.90;;;;;;5032969;28;19917;-74
2022/06/02 21:29:51;;;;;;;;;;;16.10;99.90;;;;;;5016324;28;20328;-74
2022/06/02 21:32:26;;;;;;;;;;;16.10;99.90;;;;;;5030788;28;19910;-74
2022/06/02 21:34:54;;;;;;;;;;;16.00;99.90;;;;;;5043999;28;20000;-74
2022/06/02 21:37:32;;;;;;;;;;;16.00;99.90;;;;;;5037693;28;19923;-74
2022/06/02 21:40:28;;;;;;;;;;;15.90;99.90;;;;;;5037191;28;19916;-79
2022/06/02 21:43:28;;;;;;;;;;;15.90;99.90;;;;;;5038028;28;19917;-79
2022/06/02 21:49:14;;;;;;;;;;;15.80;99.90;;;;;;5043746;28;19916;-79